createdAt,value
2022-11-17T00:04:14.769Z,35.26
2022-11-17T00:09:22.051Z,35.18
2022-11-17T00:14:29.291Z,35.34
2022-11-17T00:19:36.441Z,35.29
2022-11-17T00:24:43.687Z,35.30
2022-11-17T00:29:50.905Z,35.30
2022-11-17T00:34:58.086Z,35.32
2022-11-17T00:40:05.262Z,35.43
2022-11-17T00:45:12.618Z,35.46
2022-11-17T00:50:19.662Z,35.44
2022-11-17T00:55:26.970Z,35.61
2022-11-17T01:00:34.237Z,35.64
2022-11-17T01:05:41.277Z,35.58
2022-11-17T01:10:48.484Z,35.72
2022-11-17T01:15:55.780Z,35.70
2022-11-17T01:21:03.073Z,35.73
2022-11-17T01:26:10.300Z,35.70
2022-11-17T01:31:17.590Z,35.60
2022-11-17T01:36:24.646Z,35.60
2022-11-17T01:41:31.937Z,35.67
2022-11-17T01:46:39.249Z,35.68
2022-11-17T01:51:46.361Z,35.68
2022-11-17T01:56:53.572Z,35.76
2022-11-17T02:02:00.888Z,35.80
2022-11-17T02:07:08.040Z,35.81
2022-11-17T02:12:15.183Z,35.85
2022-11-17T02:17:22.492Z,35.96
2022-11-17T02:22:29.710Z,35.96
2022-11-17T02:27:36.923Z,35.98
2022-11-17T02:32:44.301Z,35.96
2022-11-17T02:37:51.373Z,36.02
2022-11-17T02:42:58.559Z,36.08
2022-11-17T02:48:05.845Z,36.10
2022-11-17T02:53:13.034Z,36.17
2022-11-17T02:58:21.248Z,36.19
2022-11-17T03:03:28.589Z,36.08
2022-11-17T03:08:36.401Z,36.12
2022-11-17T03:13:43.534Z,36.07
2022-11-17T03:18:50.917Z,36.21
2022-11-17T03:23:58.061Z,36.33
2022-11-17T03:29:05.334Z,36.36
2022-11-17T03:34:12.689Z,35.88
2022-11-17T03:39:19.931Z,35.33
2022-11-17T03:44:27.239Z,36.29
2022-11-17T03:49:34.531Z,36.42
2022-11-17T03:54:41.986Z,36.53
2022-11-17T03:59:49.293Z,36.54
2022-11-17T04:04:56.828Z,36.52
2022-11-17T04:10:04.147Z,36.46
2022-11-17T04:15:11.419Z,36.51
2022-11-17T04:20:18.950Z,36.51
2022-11-17T04:25:26.376Z,36.54
2022-11-17T04:30:33.810Z,36.50
2022-11-17T04:35:41.335Z,36.52
2022-11-17T04:40:48.523Z,36.49
2022-11-17T04:45:55.762Z,36.46
2022-11-17T04:51:03.228Z,36.46
2022-11-17T04:56:10.371Z,36.41
2022-11-17T05:01:17.646Z,36.43
2022-11-17T05:06:25.016Z,36.38
2022-11-17T05:11:32.075Z,36.39
2022-11-17T05:16:39.370Z,36.42
2022-11-17T05:21:46.607Z,36.41
2022-11-17T05:26:53.789Z,36.38
2022-11-17T05:32:00.991Z,36.38
2022-11-17T05:37:08.212Z,36.39
2022-11-17T05:42:15.398Z,36.38
2022-11-17T05:47:22.596Z,36.53
2022-11-17T05:52:29.972Z,36.59
2022-11-17T05:57:37.135Z,36.68
2022-11-17T06:02:44.310Z,36.54
2022-11-17T06:07:51.510Z,36.57
2022-11-17T06:12:58.804Z,36.69
2022-11-17T06:18:06.276Z,36.75
2022-11-17T06:23:13.757Z,36.60
2022-11-17T06:28:21.028Z,36.56
2022-11-17T06:33:28.434Z,36.52
2022-11-17T06:38:35.986Z,36.47
2022-11-17T06:43:43.339Z,36.50
2022-11-17T06:48:50.841Z,36.41
2022-11-17T06:53:58.363Z,36.40
2022-11-17T06:59:05.511Z,36.38
2022-11-17T07:04:12.790Z,36.36
2022-11-17T07:09:20.147Z,36.36
2022-11-17T07:14:27.272Z,36.43
2022-11-17T07:19:34.680Z,36.42
2022-11-17T07:24:42.245Z,36.39
2022-11-17T07:29:49.596Z,36.36
2022-11-17T07:34:56.899Z,36.35
2022-11-17T07:40:04.332Z,36.35
2022-11-17T07:45:11.662Z,36.40
2022-11-17T07:50:18.964Z,36.31
2022-11-17T07:55:26.275Z,36.48
2022-11-17T08:00:33.450Z,36.30
2022-11-17T08:05:43.653Z,36.11
2022-11-17T08:10:47.948Z,36.01
2022-11-17T08:15:55.044Z,35.97
2022-11-17T08:21:02.263Z,35.86
2022-11-17T08:26:09.639Z,35.71
2022-11-17T08:31:16.749Z,35.59
2022-11-17T08:36:23.928Z,35.47
2022-11-17T08:41:31.180Z,35.37
2022-11-17T08:46:38.365Z,34.82
2022-11-17T08:51:45.609Z,34.87
2022-11-17T08:56:53.055Z,34.42
2022-11-17T09:02:00.072Z,34.46
2022-11-17T09:07:07.325Z,34.22
2022-11-17T09:12:14.509Z,33.59
2022-11-17T09:17:21.706Z,33.78
2022-11-17T09:22:28.942Z,33.89
2022-11-17T09:27:36.271Z,33.83
2022-11-17T09:32:43.393Z,33.81
2022-11-17T09:37:50.591Z,33.85
2022-11-17T09:42:57.972Z,34.14
2022-11-17T09:48:25.846Z,33.80
2022-11-17T09:53:12.359Z,34.04
2022-11-17T09:58:19.748Z,34.16
2022-11-17T10:03:26.969Z,34.01
2022-11-17T10:08:34.232Z,34.11
2022-11-17T10:13:41.632Z,34.33
2022-11-17T10:18:48.677Z,34.38
2022-11-17T10:23:55.960Z,34.44
2022-11-17T10:29:08.303Z,34.40
2022-11-17T10:34:10.377Z,34.51
2022-11-17T10:39:17.967Z,34.59
2022-11-17T10:44:24.903Z,34.62
2022-11-17T10:49:32.005Z,34.70
2022-11-17T10:54:39.173Z,34.65
2022-11-17T10:59:47.896Z,34.73
2022-11-17T11:04:53.606Z,34.77
2022-11-17T11:10:00.848Z,34.78
2022-11-17T11:15:08.151Z,34.80
2022-11-17T11:20:15.363Z,34.77
2022-11-17T11:25:22.551Z,34.78
2022-11-17T11:30:29.796Z,34.83
2022-11-17T11:35:36.937Z,34.87
2022-11-17T11:40:44.168Z,34.90
2022-11-17T11:45:51.356Z,34.91
2022-11-17T11:50:58.551Z,35.04
2022-11-17T11:56:05.737Z,35.09
2022-11-17T12:01:12.995Z,35.05
2022-11-17T12:06:20.167Z,35.13
2022-11-17T12:11:27.372Z,35.17
2022-11-17T12:16:34.669Z,35.17
2022-11-17T12:21:41.760Z,35.26
2022-11-17T12:26:48.973Z,35.33
2022-11-17T12:31:56.173Z,35.33
2022-11-17T12:37:03.376Z,35.38
2022-11-17T12:42:10.590Z,35.45
2022-11-17T12:47:17.857Z,35.45
2022-11-17T12:52:24.998Z,35.46
2022-11-17T12:57:32.254Z,35.49
2022-11-17T13:02:39.528Z,35.49
2022-11-17T13:07:46.709Z,35.61
2022-11-17T13:12:54.947Z,35.65
2022-11-17T13:18:02.228Z,35.66
2022-11-17T13:23:09.442Z,35.71
2022-11-17T13:28:16.626Z,35.74
2022-11-17T13:33:23.845Z,35.81
2022-11-17T13:38:31.151Z,35.84
2022-11-17T13:43:38.402Z,35.87
2022-11-17T13:48:45.595Z,35.95
2022-11-17T13:53:52.766Z,35.97
2022-11-17T13:58:59.980Z,36.02
2022-11-17T14:04:07.310Z,36.04
2022-11-17T14:09:14.473Z,36.03
2022-11-17T14:14:21.695Z,36.05
2022-11-17T14:19:28.928Z,36.02
2022-11-17T14:24:36.135Z,36.10
2022-11-17T14:29:43.417Z,36.15
2022-11-17T14:34:50.691Z,36.20
2022-11-17T14:39:57.856Z,36.23
2022-11-17T14:45:05.078Z,36.25
2022-11-17T14:50:12.462Z,36.33
2022-11-17T14:55:19.530Z,36.39
2022-11-17T15:00:26.768Z,36.38
2022-11-17T15:05:34.108Z,36.44
2022-11-17T15:10:41.295Z,36.44
2022-11-17T15:15:48.440Z,36.46
2022-11-17T15:20:55.682Z,36.48
2022-11-17T15:26:02.845Z,36.51
2022-11-17T15:31:10.069Z,36.58
2022-11-17T15:36:17.304Z,36.64
2022-11-17T15:41:27.354Z,36.68
2022-11-17T15:46:31.697Z,36.72
2022-11-17T15:51:38.984Z,36.79
2022-11-17T15:56:46.218Z,36.78
2022-11-17T16:01:53.439Z,36.82
2022-11-17T16:07:00.914Z,36.80
2022-11-17T16:12:08.053Z,36.81
2022-11-17T16:17:15.190Z,36.78
2022-11-17T16:22:22.488Z,36.81
2022-11-17T16:27:29.681Z,36.84
2022-11-17T16:32:36.868Z,36.85
2022-11-17T16:37:44.156Z,36.81
2022-11-17T16:42:51.365Z,37.45
2022-11-17T16:47:58.594Z,37.37
2022-11-17T16:53:06.031Z,37.37
2022-11-17T16:58:13.187Z,37.39
2022-11-17T17:03:20.516Z,37.33
2022-11-17T17:08:27.617Z,37.38
2022-11-17T17:13:34.815Z,37.32
2022-11-17T17:18:42.188Z,37.31
2022-11-17T17:23:49.575Z,37.41
2022-11-17T17:28:57.118Z,37.45
2022-11-17T17:34:04.845Z,37.39
2022-11-17T17:39:12.357Z,37.46
2022-11-17T17:44:19.675Z,37.41
2022-11-17T17:49:26.963Z,37.36
2022-11-17T17:54:34.441Z,37.38
2022-11-17T17:59:42.084Z,37.31
2022-11-17T18:04:49.695Z,37.33
2022-11-17T18:09:57.329Z,37.32
2022-11-17T18:15:05.021Z,37.39
2022-11-17T18:20:12.637Z,37.36
2022-11-17T18:25:21.738Z,37.36
2022-11-17T18:30:29.195Z,37.45
2022-11-17T18:35:36.534Z,37.45
2022-11-17T18:40:44.054Z,37.59
2022-11-17T18:45:51.348Z,37.55
2022-11-17T18:51:18.617Z,37.59
2022-11-17T18:56:07.088Z,37.62
2022-11-17T19:01:14.905Z,37.59
2022-11-17T19:06:22.286Z,37.58
2022-11-17T19:11:29.930Z,37.56
2022-11-17T19:16:43.999Z,37.58
2022-11-17T19:21:45.233Z,37.54
2022-11-17T19:26:53.001Z,37.57
2022-11-17T19:32:00.473Z,37.64
2022-11-17T19:37:08.075Z,37.61
2022-11-17T19:42:15.726Z,37.58
2022-11-17T19:47:23.312Z,37.59
2022-11-17T19:52:30.822Z,37.53
2022-11-17T19:57:38.594Z,37.50
2022-11-17T20:02:46.156Z,37.54
2022-11-17T20:07:53.582Z,37.53
2022-11-17T20:13:00.996Z,37.51
2022-11-17T20:18:08.692Z,37.54
2022-11-17T20:23:16.051Z,37.61
2022-11-17T20:28:23.538Z,37.63
2022-11-17T20:33:31.060Z,37.66
2022-11-17T20:38:38.628Z,37.64
2022-11-17T20:43:46.337Z,37.64
2022-11-17T20:48:53.878Z,37.68
2022-11-17T20:54:01.210Z,37.71
2022-11-17T20:59:08.704Z,37.76
2022-11-17T21:04:16.367Z,37.74
2022-11-17T21:09:23.803Z,37.76
2022-11-17T21:14:31.176Z,37.78
2022-11-17T21:19:39.638Z,37.74
2022-11-17T21:24:47.231Z,37.61
2022-11-17T21:29:54.763Z,37.56
2022-11-17T21:35:02.173Z,37.58
2022-11-17T21:40:09.900Z,37.54
2022-11-17T21:45:17.270Z,37.57
2022-11-17T21:50:24.572Z,37.57
2022-11-17T21:55:31.867Z,37.61
2022-11-17T22:00:39.418Z,37.61
2022-11-17T22:05:46.788Z,37.66
2022-11-17T22:10:54.236Z,37.65
2022-11-17T22:16:01.559Z,37.67
2022-11-17T22:21:08.824Z,37.67
2022-11-17T22:26:16.162Z,37.71
2022-11-17T22:31:23.654Z,37.75
2022-11-17T22:36:30.953Z,37.78
2022-11-17T22:41:38.348Z,37.79
2022-11-17T22:46:45.743Z,37.78
2022-11-17T22:51:52.975Z,37.83
2022-11-17T22:57:00.381Z,37.81
2022-11-17T23:02:07.792Z,37.80
2022-11-17T23:07:15.161Z,37.82
2022-11-17T23:12:22.377Z,37.79
2022-11-17T23:17:29.762Z,37.72
2022-11-17T23:22:37.150Z,37.73
2022-11-17T23:27:44.564Z,37.70
2022-11-17T23:32:51.971Z,37.74
2022-11-17T23:37:59.300Z,37.71
2022-11-17T23:43:06.684Z,37.71
2022-11-17T23:48:14.064Z,37.73
2022-11-17T23:53:21.271Z,37.77
2022-11-17T23:58:28.628Z,37.75
